Time;durP1;ratioP1;P1;durP2;ratioP2;P2;SDS_P1;SDS_P2;PMS_P1;PMS_P2;Temp;Humidity;BMP_temperature;BMP_pressure;BME280_temperature;BME280_humidity;BME280_pressure;Samples;Min_cycle;Max_cycle;Signal;HPM_P1;HPM_P2
2022/08/30 00:03:26;;;;;;;;;;;;;;;16.83;66.92;98297.56;4998590;28;19926;-86
2022/08/30 00:06:16;;;;;;;;;;;;;;;16.81;66.63;98296.28;5002235;28;20494;-84
2022/08/30 00:09:04;;;;;;;;;;;;;;;16.44;67.92;98298.97;5005399;28;19921;-81
2022/08/30 00:11:52;;;;;;;;;;;;;;;16.34;67.94;98294.72;5005613;28;19996;-84
2022/08/30 00:14:41;;;;;;;;;;;;;;;16.59;67.27;98289.28;5000693;28;19921;-85
2022/08/30 00:17:31;;;;;;;;;;;;;;;16.69;67.16;98295.13;5004269;28;20008;-83
2022/08/30 00:20:20;;;;;;;;;;;;;;;16.74;66.40;98294.91;4994480;28;19929;-85
2022/08/30 00:23:09;;;;;;;;;;;;;;;16.54;67.39;98287.56;4997351;28;19922;-85
2022/08/30 00:26:01;;;;;;;;;;;;;;;16.16;68.20;98296.84;4998168;28;19960;-80
2022/08/30 00:28:49;;;;;;;;;;;;;;;16.25;68.04;98291.28;5005354;28;20331;-82
2022/08/30 00:31:45;;;;;;;;;;;;;;;16.27;68.41;98304.66;4997420;28;19921;-85
2022/08/30 00:34:35;;;;;;;;;;;;;;;16.45;67.49;98297.81;5010187;28;19952;-84
2022/08/30 00:37:23;;;;;;;;;;;;;;;16.44;67.42;98294.28;5010389;28;20285;-81
2022/08/30 00:40:14;;;;;;;;;;;;;;;16.39;67.55;98299.19;5011438;28;19921;-85
2022/08/30 00:43:03;;;;;;;;;;;;;;;16.37;67.72;98296.78;4993807;28;19960;-87
2022/08/30 00:45:53;;;;;;;;;;;;;;;16.45;66.93;98304.09;5001471;28;19929;-86
2022/08/30 00:48:43;;;;;;;;;;;;;;;16.58;66.92;98304.94;4999960;28;20123;-85
2022/08/30 00:51:33;;;;;;;;;;;;;;;16.43;67.28;98303.66;5002753;28;19925;-87
2022/08/30 00:54:22;;;;;;;;;;;;;;;16.38;67.53;98300.31;5006323;28;19949;-86
2022/08/30 00:57:12;;;;;;;;;;;;;;;16.52;67.10;98295.34;5006966;28;19922;-84
2022/08/30 01:03:13;;;;;;;;;;;;;;;16.25;68.35;98302.25;5002720;28;20011;-83
2022/08/30 01:06:01;;;;;;;;;;;;;;;16.41;67.74;98294.16;4992038;28;19921;-82
2022/08/30 01:12:08;;;;;;;;;;;;;;;16.54;66.87;98294.97;4996564;28;19926;-86
2022/08/30 01:14:56;;;;;;;;;;;;;;;16.57;66.61;98292.38;5012373;28;20019;-82
2022/08/30 01:17:45;;;;;;;;;;;;;;;16.59;66.73;98297.50;5002319;28;20011;-84
2022/08/30 01:20:36;;;;;;;;;;;;;;;16.58;66.24;98304.13;4995074;28;19922;-84
2022/08/30 01:23:26;;;;;;;;;;;;;;;16.50;66.37;98297.59;4995223;28;20052;-84
2022/08/30 01:26:16;;;;;;;;;;;;;;;16.52;66.70;98300.81;5008188;28;19922;-84
2022/08/30 01:29:05;;;;;;;;;;;;;;;16.07;68.10;98296.13;5004243;28;19952;-81
2022/08/30 01:31:58;;;;;;;;;;;;;;;16.15;68.01;98286.22;5003959;28;19921;-86
2022/08/30 01:34:47;;;;;;;;;;;;;;;16.09;68.48;98293.06;5006974;28;19925;-85
2022/08/30 01:37:38;;;;;;;;;;;;;;;16.13;68.46;98288.50;5000675;28;19926;-82
2022/08/30 01:40:28;;;;;;;;;;;;;;;16.20;67.70;98292.28;5003525;28;19922;-85
2022/08/30 01:43:41;;;;;;;;;;;;;;;16.27;66.98;98299.16;4992758;28;19932;-84
2022/08/30 01:46:31;;;;;;;;;;;;;;;16.24;67.53;98298.72;5002914;28;20000;-84
2022/08/30 01:52:34;;;;;;;;;;;;;;;16.30;67.24;98298.47;5008537;28;19926;-88
2022/08/30 01:55:25;;;;;;;;;;;;;;;16.03;68.42;98303.41;5009844;28;19955;-85
2022/08/30 02:05:14;;;;;;;;;;;;;;;16.13;68.14;98294.78;4996687;28;19976;-82
2022/08/30 02:08:07;;;;;;;;;;;;;;;15.93;68.18;98290.16;4993393;28;20059;-81
2022/08/30 02:10:58;;;;;;;;;;;;;;;16.11;67.36;98290.78;4995309;28;20044;-86
2022/08/30 02:13:48;;;;;;;;;;;;;;;16.12;67.49;98293.16;5012276;28;19941;-85
2022/08/30 02:16:36;;;;;;;;;;;;;;;16.24;67.31;98286.91;4998348;28;20399;-87
2022/08/30 02:19:25;;;;;;;;;;;;;;;16.31;66.87;98286.38;4997902;28;19922;-87
2022/08/30 02:22:13;;;;;;;;;;;;;;;16.13;67.14;98289.28;5009144;28;19928;-83
2022/08/30 02:25:02;;;;;;;;;;;;;;;16.23;67.03;98285.31;4992622;28;20007;-87
2022/08/30 02:27:52;;;;;;;;;;;;;;;16.27;66.84;98286.25;5000908;28;20007;-86
2022/08/30 02:30:42;;;;;;;;;;;;;;;16.33;66.56;98292.31;5005706;28;20635;-86
2022/08/30 02:33:31;;;;;;;;;;;;;;;16.35;66.46;98287.28;4993500;28;19922;-85
2022/08/30 02:36:20;;;;;;;;;;;;;;;16.33;66.18;98286.84;4992290;28;20327;-87
2022/08/30 02:39:08;;;;;;;;;;;;;;;16.27;66.45;98289.00;4999058;28;19936;-82
2022/08/30 02:41:57;;;;;;;;;;;;;;;16.12;66.93;98298.66;5011032;28;19934;-86
2022/08/30 02:44:45;;;;;;;;;;;;;;;16.19;66.86;98287.97;5005830;28;19975;-82
2022/08/30 02:47:59;;;;;;;;;;;;;;;16.13;67.14;98294.78;5007163;28;20360;-82
2022/08/30 02:50:49;;;;;;;;;;;;;;;15.75;68.87;98288.69;5007716;28;19925;-81
2022/08/30 02:53:38;;;;;;;;;;;;;;;15.82;68.35;98292.50;5000506;28;19929;-86
2022/08/30 02:56:27;;;;;;;;;;;;;;;15.81;68.60;98288.16;4990078;28;20439;-84
2022/08/30 02:59:19;;;;;;;;;;;;;;;15.84;68.44;98287.50;5004851;28;19922;-83
2022/08/30 03:02:32;;;;;;;;;;;;;;;15.84;68.31;98283.94;5007157;28;19964;-87
2022/08/30 03:05:45;;;;;;;;;;;;;;;15.88;68.27;98276.66;5007622;28;19921;-85
2022/08/30 03:08:34;;;;;;;;;;;;;;;15.79;68.45;98284.16;5004389;28;20019;-84
2022/08/30 03:11:23;;;;;;;;;;;;;;;15.63;69.11;98287.50;5006246;28;20008;-87
2022/08/30 03:14:13;;;;;;;;;;;;;;;15.54;69.33;98285.94;5001932;28;19925;-85
2022/08/30 03:17:02;;;;;;;;;;;;;;;15.68;68.83;98281.81;4999556;28;19921;-86
2022/08/30 03:19:50;;;;;;;;;;;;;;;15.72;68.50;98290.19;5001664;28;19953;-82
2022/08/30 03:22:40;;;;;;;;;;;;;;;15.54;69.42;98278.53;4999766;28;19925;-84
2022/08/30 03:25:28;;;;;;;;;;;;;;;15.64;68.72;98272.66;5002953;28;20015;-83
2022/08/30 03:28:42;;;;;;;;;;;;;;;15.66;68.74;98280.56;5006833;28;19944;-82
2022/08/30 03:31:30;;;;;;;;;;;;;;;15.64;68.94;98289.09;4999694;28;19932;-84
2022/08/30 03:37:30;;;;;;;;;;;;;;;15.31;70.30;98285.47;5001736;28;19933;-84
2022/08/30 03:40:20;;;;;;;;;;;;;;;15.39;69.30;98290.06;5000822;28;20054;-84
2022/08/30 03:43:33;;;;;;;;;;;;;;;15.15;70.44;98296.22;5003944;28;19928;-86
2022/08/30 03:46:22;;;;;;;;;;;;;;;15.20;70.34;98301.50;5005157;28;19932;-85
2022/08/30 03:49:11;;;;;;;;;;;;;;;15.29;69.66;98295.97;4997576;28;20130;-85
2022/08/30 03:52:00;;;;;;;;;;;;;;;15.37;69.15;98306.03;5010433;28;19926;-87
2022/08/30 03:54:52;;;;;;;;;;;;;;;15.36;69.52;98299.78;5003025;28;19929;-83
2022/08/30 03:57:42;;;;;;;;;;;;;;;15.17;70.20;98299.41;5002466;28;19972;-86
2022/08/30 04:00:31;;;;;;;;;;;;;;;15.19;69.88;98294.41;5001843;28;19921;-82
2022/08/30 04:03:24;;;;;;;;;;;;;;;15.27;69.47;98300.97;5001796;28;19973;-81
2022/08/30 04:06:12;;;;;;;;;;;;;;;15.17;69.80;98297.47;4993777;28;19921;-82
2022/08/30 04:12:13;;;;;;;;;;;;;;;15.26;69.85;98302.09;5003967;28;19921;-85
2022/08/30 04:15:10;;;;;;;;;;;;;;;15.26;69.68;98299.38;4996839;28;19922;-82
2022/08/30 04:17:58;;;;;;;;;;;;;;;15.02;70.77;98303.53;4998514;28;19932;-84
2022/08/30 04:20:50;;;;;;;;;;;;;;;15.19;70.50;98311.63;4993500;28;19926;-84
2022/08/30 04:35:50;;;;;;;;;;;;;;;15.13;70.44;98314.91;5013468;28;19933;-87
2022/08/30 04:38:43;;;;;;;;;;;;;;;14.90;71.05;98309.69;5008405;28;19928;-88
2022/08/30 04:41:15;;;;;;;;;;;;;;;14.77;71.59;98310.75;5008418;28;19952;-88
2022/08/30 04:43:43;;;;;;;;;;;;;;;14.66;71.96;98323.97;5025353;28;19927;-89
2022/08/30 04:46:12;;;;;;;;;;;;;;;14.72;71.61;98318.34;5004086;28;19922;-86
2022/08/30 04:48:42;;;;;;;;;;;;;;;14.87;71.60;98315.84;5014094;28;19925;-89
2022/08/30 04:51:11;;;;;;;;;;;;;;;14.98;71.08;98316.28;5007038;28;19949;-90
2022/08/30 04:53:40;;;;;;;;;;;;;;;14.87;71.43;98324.06;5000930;28;19949;-88
2022/08/30 04:56:09;;;;;;;;;;;;;;;14.88;71.20;98325.66;5013222;28;19929;-85
2022/08/30 04:58:37;;;;;;;;;;;;;;;14.70;71.33;98337.81;5014290;28;19921;-83
2022/08/30 05:01:08;;;;;;;;;;;;;;;15.00;70.62;98335.09;5009705;28;19932;-84
2022/08/30 05:03:36;;;;;;;;;;;;;;;14.73;71.25;98337.13;5005359;28;19932;-86
2022/08/30 05:06:06;;;;;;;;;;;;;;;14.77;71.25;98345.50;5014243;28;19927;-84
2022/08/30 05:08:34;;;;;;;;;;;;;;;14.79;71.11;98340.50;5012151;28;19929;-87
2022/08/30 05:11:04;;;;;;;;;;;;;;;14.75;71.35;98343.06;5013172;28;19927;-90
2022/08/30 05:13:32;;;;;;;;;;;;;;;14.94;70.94;98342.69;5014581;28;19932;-87
2022/08/30 05:16:03;;;;;;;;;;;;;;;14.76;71.38;98346.63;5006426;28;20416;-88
2022/08/30 05:18:33;;;;;;;;;;;;;;;14.75;71.50;98350.47;5007301;28;19921;-90
2022/08/30 05:21:07;;;;;;;;;;;;;;;14.93;71.20;98338.34;5015165;28;19928;-86
2022/08/30 05:23:36;;;;;;;;;;;;;;;14.89;71.00;98345.59;5022102;28;20319;-84
2022/08/30 05:26:05;;;;;;;;;;;;;;;14.88;70.84;98352.22;5012137;28;19983;-85
2022/08/30 05:28:33;;;;;;;;;;;;;;;15.09;70.33;98344.88;5008095;28;20041;-83
2022/08/30 05:31:01;;;;;;;;;;;;;;;15.10;70.25;98343.72;5001621;28;20291;-78
2022/08/30 05:33:32;;;;;;;;;;;;;;;15.23;69.60;98343.81;5023777;28;20357;-75
2022/08/30 05:36:02;;;;;;;;;;;;;;;15.04;70.21;98345.03;5004565;28;19925;-76
2022/08/30 05:38:32;;;;;;;;;;;;;;;15.10;70.29;98343.72;5004422;28;19925;-77
2022/08/30 05:41:00;;;;;;;;;;;;;;;15.10;69.89;98338.25;5017639;28;20401;-77
2022/08/30 05:43:31;;;;;;;;;;;;;;;15.22;69.95;98342.22;5019543;28;20020;-77
2022/08/30 05:46:00;;;;;;;;;;;;;;;15.42;69.66;98341.44;5005170;28;19973;-76
2022/08/30 05:48:28;;;;;;;;;;;;;;;15.35;69.66;98341.97;5007967;28;19929;-76
2022/08/30 05:51:03;;;;;;;;;;;;;;;15.42;69.41;98341.44;5012700;28;20383;-76
2022/08/30 05:53:33;;;;;;;;;;;;;;;15.20;70.13;98342.53;5007983;28;19949;-76
2022/08/30 05:56:03;;;;;;;;;;;;;;;15.28;69.90;98343.63;5006977;28;19926;-75
2022/08/30 05:58:55;;;;;;;;;;;;;;;15.38;69.16;98348.72;5012728;28;19926;-77
2022/08/30 06:04:16;;;;;;;;;;;;;;;15.64;68.64;98354.03;5020492;28;19926;-76
2022/08/30 06:06:44;;;;;;;;;;;;;;;15.54;68.64;98357.94;5011700;28;20308;-76
2022/08/30 06:09:14;;;;;;;698.30;237.00;;;;;;;15.51;68.36;98347.66;5011626;28;19929;-76
2022/08/30 06:11:42;;;;;;;989.35;328.17;;;;;;;15.56;68.55;98350.22;5004386;28;20475;-77
2022/08/30 06:14:11;;;;;;;53.67;21.95;;;;;;;15.75;67.94;98348.97;5010207;28;20506;-77
2022/08/30 06:16:39;;;;;;;;;;;;;;;15.77;68.48;98349.44;5005212;28;20420;-76
2022/08/30 06:19:09;;;;;;;;;;;;;;;15.59;69.22;98352.28;5003917;28;20338;-77
2022/08/30 06:21:39;;;;;;;73.43;28.30;;;;;;;15.62;69.17;98351.63;5002723;28;20772;-77
2022/08/30 06:24:09;;;;;;;6.55;2.50;;;;;;;15.93;68.35;98350.44;5012310;28;20440;-76
2022/08/30 06:27:27;;;;;;;7.18;2.85;;;;;;;15.99;68.38;98349.09;5006610;28;20754;-76
2022/08/30 06:29:56;;;;;;;6.28;2.75;;;;;;;16.11;67.73;98360.09;5007837;28;20436;-76
2022/08/30 06:32:43;;;;;;;6.78;2.90;;;;;;;16.16;67.72;98359.91;4994979;28;20895;-76
2022/08/30 06:35:32;;;;;;;8.27;3.17;;;;;;;16.31;67.51;98361.22;5002734;28;20567;-76
2022/08/30 06:38:35;;;;;;;10.00;3.83;;;;;;;16.35;67.80;98361.31;4998375;28;20911;-76
2022/08/30 06:41:26;;;;;;;9.60;3.20;;;;;;;16.62;66.96;98362.63;4999073;28;20897;-76
2022/08/30 06:44:16;;;;;;;;;;;;;;;16.38;67.80;98363.38;5000586;28;20896;-76
2022/08/30 06:47:06;;;;;;;9.25;3.72;;;;;;;16.42;67.95;98361.59;4974829;28;20499;-75
2022/08/30 06:49:55;;;;;;;;;;;;;;;16.38;68.34;98366.13;4997307;28;20433;-75
2022/08/30 06:52:44;;;;;;;;;;;;;;;16.49;67.80;98361.81;4984155;28;19922;-76
2022/08/30 06:55:33;;;;;;;;;;;;;;;16.65;67.70;98357.28;4993159;28;19929;-76
2022/08/30 06:58:24;;;;;;;;;;;;;;;16.79;66.51;98361.69;4980057;28;19921;-76
2022/08/30 07:04:26;;;;;;;365.73;124.53;;;;;;;17.27;65.43;98358.97;4993449;28;20414;-75
2022/08/30 07:07:15;;;;;;;1658.43;500.75;;;;;;;17.41;64.64;98344.06;4999474;28;20773;-75
2022/08/30 07:10:04;;;;;;;;;;;;;;;17.59;64.17;98358.34;4999686;28;20780;-76
2022/08/30 07:12:53;;;;;;;;;;;;;;;17.67;64.46;98354.66;5002227;28;20004;-76
2022/08/30 07:15:44;;;;;;;;;;;;;;;17.83;63.67;98357.50;4996919;28;19926;-76
2022/08/30 07:18:53;;;;;;;;;;;;;;;17.82;63.60;98356.72;4995335;28;19922;-76
2022/08/30 07:21:43;;;;;;;;;;;;;;;17.81;63.60;98360.63;5004745;28;19921;-76
2022/08/30 07:24:57;;;;;;;;;;;;;;;18.13;63.43;98353.28;5005772;28;19925;-76
2022/08/30 07:27:46;;;;;;;;;;;;;;;18.33;63.44;98349.53;4997001;28;19925;-75
2022/08/30 07:30:35;;;;;;;;;;;;;;;18.44;62.67;98360.03;5000339;28;20407;-78
2022/08/30 07:33:23;;;;;;;;;;;;;;;18.24;63.18;98361.84;5002239;28;19968;-76
2022/08/30 07:36:11;;;;;;;;;;;;;;;18.38;63.28;98362.22;4991014;28;20052;-76
2022/08/30 07:39:01;;;;;;;;;;;;;;;18.54;62.15;98354.81;4995446;28;19925;-76
2022/08/30 07:41:49;;;;;;;;;;;;;;;18.62;62.04;98350.28;5003017;28;20303;-76
2022/08/30 07:44:37;;;;;;;;;;;;;;;18.73;62.00;98353.34;4994154;28;20292;-76
2022/08/30 07:47:26;;;;;;;;;;;;;;;18.83;61.11;98356.34;4976699;28;19925;-75
2022/08/30 07:50:39;;;;;;;;;;;;;;;19.07;61.85;98368.38;4977480;28;20013;-77
2022/08/30 07:53:55;;;;;;;;;;;;;;;19.28;61.89;98366.13;4974705;28;19964;-76
2022/08/30 07:56:45;;;;;;;8.60;3.65;;;;;;;19.46;60.24;98368.47;4985764;28;20380;-76
2022/08/30 08:06:04;;;;;;;8.35;3.30;;;;;;;19.78;58.58;98369.22;5024364;28;20511;-75
2022/08/30 08:09:18;;;;;;;6.85;3.20;;;;;;;19.69;58.13;98372.19;5018199;28;20410;-75
2022/08/30 08:12:13;;;;;;;6.43;3.88;;;;;;;20.03;57.52;98375.28;5020587;28;20760;-74
2022/08/30 08:15:01;;;;;;;9.33;3.60;;;;;;;20.08;57.68;98373.03;5032412;28;20474;-75
2022/08/30 08:17:57;;;;;;;9.65;3.75;;;;;;;20.12;58.45;98370.31;4996666;28;20408;-76
2022/08/30 08:21:12;;;;;;;8.73;3.58;;;;;;;19.98;56.91;98368.09;4993435;28;20788;-77
2022/08/30 08:24:04;;;;;;;7.03;3.55;;;;;;;20.09;56.42;98371.06;5003493;28;20739;-77
2022/08/30 08:27:19;;;;;;;7.20;3.47;;;;;;;20.01;56.31;98369.31;5000129;28;20486;-75
2022/08/30 08:30:08;;;;;;;10.87;3.83;;;;;;;20.13;56.11;98366.41;4989362;28;20409;-75
2022/08/30 08:33:28;;;;;;;8.75;3.72;;;;;;;20.46;56.15;98363.16;5004279;28;20428;-75
2022/08/30 08:36:17;;;;;;;8.15;3.97;;;;;;;20.48;55.91;98365.53;5003513;28;20400;-76
2022/08/30 08:39:06;;;;;;;9.82;3.60;;;;;;;20.63;55.09;98361.88;4995333;28;20410;-77
2022/08/30 08:42:01;;;;;;;7.83;3.53;;;;;;;20.66;55.20;98356.41;4993664;28;20434;-76
2022/08/30 08:44:56;;;;;;;6.43;3.47;;;;;;;20.82;56.64;98356.28;5002759;28;20401;-77
2022/08/30 08:47:53;;;;;;;6.22;3.22;;;;;;;21.05;53.64;98356.31;5005193;28;20476;-75
2022/08/30 08:53:33;;;;;;;7.43;3.23;;;;;;;20.92;53.39;98357.66;5006600;28;20783;-76
2022/08/30 08:53:54;;;;;;;7.90;3.58;;;;;;;21.06;53.92;98357.91;4996563;28;20422;-75
2022/08/30 08:56:43;;;;;;;6.88;3.25;;;;;;;21.17;54.01;98353.34;5002293;28;20449;-76
2022/08/30 08:59:31;;;;;;;5.57;2.90;;;;;;;21.26;53.64;98361.38;5002638;28;20800;-76
2022/08/30 09:02:26;;;;;;;7.97;3.70;;;;;;;21.38;53.51;98361.19;5000494;28;20915;-77
2022/08/30 09:05:18;;;;;;;5.20;3.03;;;;;;;21.43;54.05;98355.34;4993842;28;20408;-76
2022/08/30 09:08:09;;;;;;;6.55;2.85;;;;;;;21.56;52.13;98357.88;5007347;28;21055;-77
2022/08/30 09:11:01;;;;;;;7.60;3.03;;;;;;;21.58;51.38;98361.09;4999088;28;20551;-76
2022/08/30 09:13:55;;;;;;;6.00;2.50;;;;;;;21.70;51.29;98356.13;4998932;28;20530;-77
2022/08/30 09:16:50;;;;;;;6.13;2.65;;;;;;;21.85;50.70;98365.41;4997779;28;20416;-76
2022/08/30 09:19:42;;;;;;;9.98;3.50;;;;;;;21.91;50.69;98363.13;4995878;28;20405;-76
2022/08/30 09:22:56;;;;;;;5.50;2.58;;;;;;;22.26;50.38;98361.97;5004482;28;20409;-76
2022/08/30 09:25:51;;;;;;;564.77;223.67;;;;;;;22.23;50.18;98355.25;5007609;28;20405;-77
2022/08/30 09:29:06;;;;;;;68.53;45.58;;;;;;;22.34;49.64;98358.94;5001968;28;20896;-76
2022/08/30 09:32:26;;;;;;;5.60;2.55;;;;;;;22.28;49.26;98352.13;5000104;28;20448;-77
2022/08/30 09:35:19;;;;;;;5.90;2.50;;;;;;;22.20;49.57;98359.53;5000489;28;20426;-76
2022/08/30 09:38:35;;;;;;;4.90;2.45;;;;;;;22.19;50.34;98346.88;4998932;28;20411;-76
2022/08/30 09:41:30;;;;;;;5.70;2.65;;;;;;;22.25;49.71;98346.56;4997504;28;20401;-77
2022/08/30 09:44:21;;;;;;;7.32;3.17;;;;;;;22.39;49.93;98339.22;5000881;28;20413;-77
2022/08/30 09:47:33;;;;;;;6.00;2.75;;;;;;;22.48;49.76;98336.94;4996558;28;20437;-77
2022/08/30 09:53:50;;;;;;;5.53;2.70;;;;;;;22.49;48.77;98337.72;5004826;28;20815;-76
2022/08/30 09:57:03;;;;;;;6.30;2.83;;;;;;;22.57;49.70;98341.34;5005363;28;20507;-77
2022/08/30 10:00:05;;;;;;;5.90;2.80;;;;;;;22.76;49.01;98338.38;5004567;28;20401;-76
2022/08/30 10:03:24;;;;;;;7.60;2.90;;;;;;;22.76;48.61;98335.63;4971976;28;20431;-76
2022/08/30 10:06:36;;;;;;;6.17;2.43;;;;;;;22.85;47.62;98333.34;4983673;28;20442;-76
2022/08/30 10:09:30;;;;;;;5.97;2.55;;;;;;;22.85;46.95;98330.56;4978794;28;20404;-76
2022/08/30 10:12:23;;;;;;;6.03;2.58;;;;;;;22.86;47.43;98326.63;4976634;28;21004;-76
2022/08/30 10:15:20;;;;;;;6.70;2.97;;;;;;;23.05;47.57;98322.81;4977034;28;20439;-75
2022/08/30 10:21:32;;;;;;;4.72;2.53;;;;;;;23.22;46.60;98313.03;5002398;28;20411;-77
2022/08/30 10:24:46;;;;;;;5.55;2.78;;;;;;;23.31;45.57;98313.50;5001076;28;20957;-76
2022/08/30 10:27:39;;;;;;;4.70;2.75;;;;;;;23.22;46.52;98307.50;4996060;28;20429;-76
2022/08/30 10:30:30;;;;;;;4.80;2.30;;;;;;;23.38;45.56;98305.22;4992396;28;20915;-76
2022/08/30 10:33:31;;;;;;;6.57;2.83;;;;;;;23.40;45.60;98296.53;4997440;28;20436;-76
2022/08/30 10:36:24;;;;;;;45.33;8.70;;;;;;;23.27;44.47;98294.06;5006012;28;20487;-77
2022/08/30 10:39:27;;;;;;;4.90;2.10;;;;;;;23.38;44.88;98288.59;5001643;28;20575;-76
2022/08/30 10:42:41;;;;;;;4.47;2.20;;;;;;;23.38;44.10;98283.06;4993214;28;20404;-77
2022/08/30 10:45:33;;;;;;;5.18;2.85;;;;;;;23.45;43.51;98283.09;4993865;28;20862;-77
2022/08/30 10:55:05;;;;;;;5.30;2.30;;;;;;;23.42;40.58;98278.31;5006266;28;20829;-76
2022/08/30 10:57:59;;;;;;;4.85;2.20;;;;;;;23.46;41.91;98278.34;5003017;28;20421;-77
2022/08/30 11:00:58;;;;;;;4.80;2.13;;;;;;;23.58;41.67;98275.25;4989050;28;20427;-77
2022/08/30 11:04:17;;;;;;;5.53;2.20;;;;;;;23.66;42.13;98267.78;4988275;28;20423;-76
2022/08/30 11:07:12;;;;;;;6.32;2.30;;;;;;;23.79;40.50;98269.81;4993778;28;20549;-77
2022/08/30 11:10:23;;;;;;;4.28;2.13;;;;;;;23.87;40.31;98270.66;5000379;28;20500;-77
2022/08/30 11:13:18;;;;;;;5.40;1.92;;;;;;;23.85;39.35;98273.00;5001863;28;20421;-77
2022/08/30 11:16:09;;;;;;;721.10;249.45;;;;;;;23.82;39.84;98268.25;4987924;28;20883;-77
2022/08/30 11:19:00;;;;;;;4.55;2.10;;;;;;;23.83;39.45;98275.38;5000384;28;20750;-76
2022/08/30 11:21:50;;;;;;;4.90;2.00;;;;;;;23.64;40.58;98267.38;4999103;28;20412;-78
2022/08/30 11:25:06;;;;;;;4.40;2.17;;;;;;;23.73;40.63;98262.25;4991367;28;20402;-76
2022/08/30 11:27:59;;;;;;;6.10;2.10;;;;;;;23.96;39.29;98257.19;4993170;28;20492;-76
2022/08/30 11:31:36;;;;;;;3.42;2.00;;;;;;;24.02;35.17;98258.41;4988069;28;20768;-76
2022/08/30 11:35:00;;;;;;;3.85;1.70;;;;;;;24.23;35.81;98254.09;4999683;28;20440;-76
2022/08/30 11:37:49;;;;;;;5.20;2.10;;;;;;;24.03;37.35;98256.44;4997123;28;20815;-76
2022/08/30 11:40:48;;;;;;;261.00;91.10;;;;;;;24.26;34.67;98250.53;4993039;28;20400;-76
2022/08/30 11:43:56;;;;;;;2.95;1.50;;;;;;;24.51;33.61;98256.94;4999902;28;20827;-77
2022/08/30 11:46:49;;;;;;;;;;;;;;;24.50;34.11;98251.75;4999850;28;20417;-77
2022/08/30 11:49:45;;;;;;;;;;;;;;;24.57;33.59;98254.56;5002769;28;20300;-76
2022/08/30 11:52:51;;;;;;;;;;;;;;;24.50;33.17;98258.16;5004549;28;19925;-77
2022/08/30 11:55:46;;;;;;;;;;;;;;;24.39;34.43;98243.41;5002431;28;20151;-77
2022/08/30 11:58:42;;;;;;;;;;;;;;;24.44;36.45;98243.03;5004593;28;19921;-78
2022/08/30 12:01:34;;;;;;;;;;;;;;;24.25;34.38;98246.97;4995091;28;19929;-76
2022/08/30 12:04:43;;;;;;;;;;;;;;;24.27;35.27;98238.22;4999437;28;19921;-77
2022/08/30 12:07:53;;;;;;;;;;;;;;;24.44;32.35;98247.78;4993109;28;19925;-77
2022/08/30 12:10:42;;;;;;;;;;;;;;;24.48;33.45;98246.63;4999028;28;19930;-76
2022/08/30 12:13:50;;;;;;;;;;;;;;;24.58;35.44;98241.47;5001952;28;19922;-77
2022/08/30 12:20:18;;;;;;;;;;;;;;;24.56;31.82;98245.44;4996328;28;20438;-77
2022/08/30 12:23:13;;;;;;;;;;;;;;;24.75;33.88;98246.22;5012765;28;19921;-76
2022/08/30 12:26:16;;;;;;;;;;;;;;;24.60;32.48;98242.66;4998582;28;19955;-77
2022/08/30 12:32:23;;;;;;;;;;;;;;;24.53;33.33;98235.13;4999752;28;20582;-77
2022/08/30 12:35:18;;;;;;;;;;;;;;;24.60;33.24;98236.31;5006466;28;19928;-77
2022/08/30 12:38:12;;;;;;;;;;;;;;;24.56;32.69;98223.22;4998452;28;20011;-77
2022/08/30 12:41:01;;;;;;;;;;;;;;;24.62;34.28;98223.63;5005666;28;20210;-76
2022/08/30 12:43:51;;;;;;;;;;;;;;;24.74;35.19;98222.41;5005999;28;19925;-77
2022/08/30 12:46:40;;;;;;;;;;;;;;;24.56;35.59;98217.66;4996257;28;19921;-77
2022/08/30 12:49:34;;;;;;;;;;;;;;;24.79;33.81;98222.00;5008987;28;19921;-76
2022/08/30 12:52:24;;;;;;;;;;;;;;;24.78;34.99;98217.66;5003287;28;20131;-77
2022/08/30 12:55:13;;;;;;;;;;;;;;;24.71;33.44;98217.63;4996009;28;19922;-76
2022/08/30 12:58:08;;;;;;;4.68;2.10;;;;;;;24.71;32.97;98223.19;5005922;28;20501;-77
2022/08/30 13:04:30;;;;;;;3.33;1.90;;;;;;;24.78;32.84;98212.09;4993127;28;21349;-77
2022/08/30 13:07:29;;;;;;;3.90;1.80;;;;;;;24.73;32.44;98209.72;4993694;28;20403;-77
2022/08/30 13:10:19;;;;;;;3.40;2.00;;;;;;;24.77;33.94;98211.31;4994246;28;20418;-76
2022/08/30 13:13:10;;;;;;;3.40;1.52;;;;;;;24.77;33.69;98213.31;5007636;28;20532;-77
2022/08/30 13:16:26;;;;;;;3.30;1.80;;;;;;;24.63;32.57;98208.53;4988449;28;20418;-77
2022/08/30 13:19:34;;;;;;;5.13;1.77;;;;;;;24.78;31.88;98217.66;5004224;28;20508;-77
2022/08/30 13:23:06;;;;;;;3.38;1.65;;;;;;;24.87;31.32;98208.91;4995398;28;20436;-76
2022/08/30 13:25:56;;;;;;;7.18;2.15;;;;;;;24.93;32.65;98202.56;4998568;28;20506;-76
2022/08/30 13:28:50;;;;;;;3.05;1.70;;;;;;;24.71;32.02;98201.75;5000761;28;20429;-76
2022/08/30 13:31:38;;;;;;;94.68;76.55;;;;;;;24.76;31.31;98209.69;4997158;28;20420;-76
2022/08/30 13:34:52;;;;;;;220.30;114.57;;;;;;;24.84;30.80;98204.94;4985887;28;20877;-76
2022/08/30 13:37:41;;;;;;;3.13;1.70;;;;;;;24.88;32.33;98204.94;4996861;28;20412;-77
2022/08/30 13:40:40;;;;;;;3.97;1.60;;;;;;;24.92;32.60;98200.16;4994022;28;20410;-76
2022/08/30 13:43:29;;;;;;;25.08;23.13;;;;;;;24.79;33.11;98192.25;5007613;28;20416;-77
2022/08/30 13:46:39;;;;;;;193.73;111.32;;;;;;;24.76;32.46;98189.47;4988380;28;20954;-77
2022/08/30 13:49:31;;;;;;;28.73;26.60;;;;;;;24.85;33.88;98191.84;5005739;28;20883;-76
2022/08/30 13:53:00;;;;;;;4.10;2.10;;;;;;;24.66;32.17;98190.25;4995583;28;20431;-76
2022/08/30 13:55:51;;;;;;;3.58;1.88;;;;;;;24.73;31.42;98187.50;5003034;28;20493;-76
2022/08/30 13:58:40;;;;;;;4.85;1.75;;;;;;;24.82;33.62;98187.84;5000293;28;20929;-76
2022/08/30 14:01:33;;;;;;;7.05;6.47;;;;;;;24.88;33.44;98180.72;5000792;28;20507;-76
2022/08/30 14:05:09;;;;;;;3.42;1.90;;;;;;;24.93;32.40;98185.88;4997428;28;20903;-77
2022/08/30 14:08:20;;;;;;;4.20;2.10;;;;;;;25.02;32.40;98183.47;5004223;28;20404;-77
2022/08/30 14:11:56;;;;;;;4.90;2.05;;;;;;;25.11;32.45;98182.28;5000781;28;20459;-76
2022/08/30 14:17:59;;;;;;;3.55;2.10;;;;;;;25.12;31.08;98170.75;4996051;28;20421;-76
2022/08/30 14:20:47;;;;;;;242.85;119.70;;;;;;;25.23;30.77;98160.38;5000038;28;21168;-77
2022/08/30 14:23:36;;;;;;;115.82;57.38;;;;;;;25.29;33.30;98160.75;5000292;28;20539;-76
2022/08/30 14:26:27;;;;;;;78.77;38.43;;;;;;;25.34;33.53;98154.78;5000777;28;20756;-76
2022/08/30 14:29:48;;;;;;;;;;;;;;;25.34;31.94;98160.34;5003985;28;20393;-76
2022/08/30 14:32:36;;;;;;;;;;;;;;;25.25;31.70;98152.47;5000124;28;19964;-76
2022/08/30 14:35:26;;;;;;;;;;;;;;;25.26;33.41;98147.69;4996910;28;20362;-76
2022/08/30 14:38:40;;;;;;;;;;;;;;;25.18;31.43;98154.44;5002793;28;19929;-77
2022/08/30 14:41:29;;;;;;;;;;;;;;;25.11;31.57;98151.72;5006443;28;20265;-78
2022/08/30 14:44:21;;;;;;;;;;;;;;;25.09;32.41;98154.91;5005505;28;20423;-77
2022/08/30 14:47:10;;;;;;;;;;;;;;;25.07;31.89;98141.38;4982582;28;19922;-78
2022/08/30 14:50:00;;;;;;;;;;;;;;;25.13;33.12;98138.19;4987303;28;19949;-77
2022/08/30 14:52:49;;;;;;;;;;;;;;;25.15;33.99;98141.38;5003429;28;19929;-77
2022/08/30 14:55:37;;;;;;;;;;;;;;;25.24;31.76;98134.16;5005824;28;20007;-77
2022/08/30 14:58:25;;;;;;;;;;;;;;;25.23;33.07;98137.34;4997662;28;19925;-76
2022/08/30 15:04:28;;;;;;;;;;;;;;;25.42;32.63;98130.53;5002249;28;19927;-77
2022/08/30 15:07:17;;;;;;;;;;;;;;;25.38;32.61;98127.75;5000858;28;20443;-77
2022/08/30 15:10:31;;;;;;;;;;;;;;;25.23;32.89;98117.91;5002769;28;19921;-76
2022/08/30 15:13:20;;;;;;;;;;;;;;;25.11;33.52;98123.91;5008487;28;19932;-75
2022/08/30 15:16:09;;;;;;;;;;;;;;;25.04;33.42;98119.16;4993452;28;19972;-77
2022/08/30 15:18:58;;;;;;;;;;;;;;;24.97;32.74;98114.38;4992583;28;19995;-76
2022/08/30 15:21:48;;;;;;;;;;;;;;;25.00;33.26;98116.38;4997657;28;19925;-76
2022/08/30 15:24:37;;;;;;;;;;;;;;;24.96;33.08;98118.34;4997984;28;19928;-76
2022/08/30 15:31:29;;;;;;;;;;;;;;;25.19;32.64;98109.56;5000250;28;19921;-77
2022/08/30 15:34:19;;;;;;;;;;;;;;;25.31;32.12;98116.69;5004751;28;20364;-76
2022/08/30 15:37:08;;;;;;;;;;;;;;;25.39;32.10;98101.53;4998238;28;19922;-77
2022/08/30 15:40:23;;;;;;;;;;;;;;;25.46;32.07;98097.91;5002950;28;19968;-77
2022/08/30 15:43:36;;;;;;;;;;;;;;;25.49;32.34;98099.88;4997894;28;20033;-77